Time;durP1;ratioP1;P1;durP2;ratioP2;P2;SDS_P1;SDS_P2;PMS_P1;PMS_P2;Temp;Humidity;BMP_temperature;BMP_pressure;BME280_temperature;BME280_humidity;BME280_pressure;Samples;Min_cycle;Max_cycle;Signal;HPM_P1;HPM_P2
2021/07/08 00:04:06;;;;;;;4.53;1.80;;;18.30;99.90;;;;;;12390306;28;20105;-39
2021/07/08 00:10:14;;;;;;;6.07;2.08;;;18.10;99.90;;;;;;12397821;28;20133;-38
2021/07/08 00:16:16;;;;;;;5.47;1.92;;;18.10;99.90;;;;;;12393138;28;20463;-38
2021/07/08 00:22:18;;;;;;;6.03;2.10;;;18.20;99.90;;;;;;12391624;28;20046;-38
2021/07/08 00:28:21;;;;;;;3.97;1.80;;;18.20;99.90;;;;;;12394948;28;20054;-38
2021/07/08 00:34:22;;;;;;;5.22;2.03;;;18.30;99.90;;;;;;12389704;28;20058;-38
2021/07/08 00:40:25;;;;;;;3.55;1.88;;;18.30;99.90;;;;;;12389245;28;20152;-39
2021/07/08 00:46:27;;;;;;;7.95;2.22;;;18.20;99.90;;;;;;12396354;28;20104;-39
2021/07/08 00:52:28;;;;;;;6.63;2.30;;;18.00;99.90;;;;;;12395169;28;20157;-38
2021/07/08 00:58:31;;;;;;;10.00;2.67;;;18.10;99.90;;;;;;12396668;28;20057;-38
2021/07/08 01:04:32;;;;;;;7.43;2.90;;;18.00;99.90;;;;;;12392524;28;20784;-39
2021/07/08 01:10:34;;;;;;;9.60;3.05;;;18.00;99.90;;;;;;12395615;28;20046;-38
2021/07/08 01:16:36;;;;;;;7.10;3.40;;;17.70;99.90;;;;;;12392805;28;20050;-39
2021/07/08 01:22:39;;;;;;;7.38;3.15;;;17.50;99.90;;;;;;12387990;28;20054;-39
2021/07/08 01:28:42;;;;;;;9.93;2.93;;;17.60;99.90;;;;;;12390581;28;20104;-38
2021/07/08 01:34:44;;;;;;;14.45;3.28;;;17.50;99.90;;;;;;12389913;28;20103;-38
2021/07/08 01:40:45;;;;;;;13.35;3.55;;;17.30;99.90;;;;;;12390023;28;20989;-38
2021/07/08 01:46:47;;;;;;;12.82;3.30;;;17.40;99.90;;;;;;12392898;28;20074;-38
2021/07/08 01:52:49;;;;;;;10.55;3.22;;;17.40;99.90;;;;;;12383947;28;20057;-41
2021/07/08 01:58:52;;;;;;;7.95;3.10;;;17.30;99.90;;;;;;12384713;28;20057;-38
2021/07/08 02:04:54;;;;;;;15.45;3.95;;;17.40;99.90;;;;;;12386187;28;20100;-38
2021/07/08 02:10:56;;;;;;;9.85;3.00;;;17.40;99.90;;;;;;12379068;28;20058;-38
2021/07/08 02:16:58;;;;;;;8.13;3.22;;;17.20;99.90;;;;;;12393191;28;20469;-38
2021/07/08 02:23:00;;;;;;;11.43;3.42;;;17.20;99.90;;;;;;12383365;28;20883;-38
2021/07/08 02:29:02;;;;;;;14.45;3.35;;;17.30;99.90;;;;;;12389445;28;20133;-38
2021/07/08 02:35:05;;;;;;;10.70;3.47;;;17.40;99.90;;;;;;12385945;28;20054;-38
2021/07/08 02:41:08;;;;;;;14.32;3.65;;;17.20;99.90;;;;;;12386847;28;20105;-38
2021/07/08 02:47:10;;;;;;;15.15;3.78;;;17.00;99.90;;;;;;12385944;28;20054;-38
2021/07/08 02:53:13;;;;;;;10.75;3.50;;;17.10;99.90;;;;;;12386239;28;20058;-38
2021/07/08 02:59:15;;;;;;;16.83;4.33;;;17.20;99.90;;;;;;12379999;28;20144;-38
2021/07/08 03:05:17;;;;;;;14.13;3.50;;;17.20;99.90;;;;;;12384512;28;20038;-39
2021/07/08 03:11:21;;;;;;;11.77;3.40;;;17.30;99.90;;;;;;12389603;28;20160;-38
2021/07/08 03:17:23;;;;;;;15.13;4.35;;;17.40;99.90;;;;;;12396550;28;20449;-38
2021/07/08 03:23:25;;;;;;;18.85;4.03;;;17.30;99.90;;;;;;12394966;28;20081;-39
2021/07/08 03:29:27;;;;;;;18.83;3.45;;;17.30;99.90;;;;;;12384299;28;20510;-38
2021/07/08 03:35:29;;;;;;;10.70;4.20;;;17.30;99.90;;;;;;12392574;28;20073;-39
2021/07/08 03:41:31;;;;;;;15.55;4.00;;;17.40;99.90;;;;;;12385898;28;20117;-38
2021/07/08 03:47:33;;;;;;;20.02;3.63;;;17.30;99.90;;;;;;12390000;28;20115;-38
2021/07/08 03:53:35;;;;;;;12.25;3.30;;;17.40;99.90;;;;;;12386354;28;20383;-38
2021/07/08 03:59:37;;;;;;;10.90;3.00;;;17.10;99.90;;;;;;12392572;28;20135;-39
2021/07/08 04:05:40;;;;;;;13.10;3.70;;;17.20;99.90;;;;;;12386825;28;20047;-38
2021/07/08 04:11:42;;;;;;;10.25;3.60;;;17.20;99.90;;;;;;12383690;28;20101;-38
2021/07/08 04:17:43;;;;;;;10.70;3.40;;;17.20;99.90;;;;;;12390156;28;20058;-39
2021/07/08 04:23:45;;;;;;;7.15;3.28;;;17.40;99.90;;;;;;12384363;28;20137;-38
2021/07/08 04:29:47;;;;;;;11.07;3.20;;;17.60;99.90;;;;;;12388919;28;20050;-39
2021/07/08 04:35:49;;;;;;;9.70;3.10;;;17.40;99.90;;;;;;12393644;28;20353;-39
2021/07/08 04:41:51;;;;;;;6.60;3.53;;;17.40;99.90;;;;;;12386389;28;20050;-38
2021/07/08 04:47:53;;;;;;;8.35;3.28;;;17.50;99.90;;;;;;12374889;28;20093;-41
2021/07/08 04:53:55;;;;;;;7.72;3.80;;;17.50;99.90;;;;;;12384616;28;20084;-40
2021/07/08 04:59:57;;;;;;;9.52;4.03;;;17.50;99.90;;;;;;12380517;28;20128;-44
2021/07/08 05:05:59;;;;;;;13.30;3.55;;;17.50;99.90;;;;;;12378348;28;20108;-40
2021/07/08 05:12:01;;;;;;;8.70;3.53;;;17.50;99.90;;;;;;12377862;28;20812;-43
2021/07/08 05:18:04;;;;;;;8.95;3.83;;;17.40;99.90;;;;;;12380690;28;20047;-43
2021/07/08 05:24:06;;;;;;;7.53;3.58;;;17.50;99.90;;;;;;12370597;28;20046;-41
2021/07/08 05:30:09;;;;;;;10.18;4.10;;;17.60;99.90;;;;;;12386701;28;20552;-36
2021/07/08 05:36:10;;;;;;;5.88;3.80;;;17.70;99.90;;;;;;12377783;28;20830;-48
2021/07/08 05:42:12;;;;;;;7.95;3.78;;;17.70;99.90;;;;;;12382488;28;20137;-37
2021/07/08 05:48:14;;;;;;;12.02;3.75;;;17.50;99.90;;;;;;12384642;28;20077;-40
2021/07/08 05:54:16;;;;;;;8.25;3.83;;;17.50;99.90;;;;;;12377713;28;20089;-41
2021/07/08 06:00:19;;;;;;;8.98;4.03;;;17.60;99.90;;;;;;12381144;28;20058;-41
2021/07/08 06:06:21;;;;;;;9.45;3.90;;;18.00;99.90;;;;;;12382681;28;20051;-40
2021/07/08 06:12:23;;;;;;;7.20;3.72;;;18.20;99.90;;;;;;12383687;28;20049;-41
2021/07/08 06:18:25;;;;;;;9.57;3.67;;;18.40;99.90;;;;;;12386856;28;20554;-40
2021/07/08 06:24:27;;;;;;;6.30;3.38;;;18.50;99.90;;;;;;12384413;28;20450;-41
2021/07/08 06:30:29;;;;;;;7.22;3.78;;;18.50;99.90;;;;;;12379538;28;20132;-39
2021/07/08 06:36:30;;;;;;;7.40;3.88;;;18.70;99.90;;;;;;12384012;28;20260;-37
2021/07/08 06:42:32;;;;;;;12.98;3.67;;;18.60;99.90;;;;;;12384547;28;20490;-40
2021/07/08 06:48:34;;;;;;;10.23;4.38;;;18.70;99.90;;;;;;12392951;28;20077;-38
2021/07/08 06:54:37;;;;;;;8.23;2.95;;;18.80;99.90;;;;;;12390820;28;20380;-42
2021/07/08 07:00:41;;;;;;;12.63;3.55;;;18.80;99.90;;;;;;12395203;28;20046;-42
2021/07/08 07:06:42;;;;;;;;;;;18.90;99.90;;;;;;12391284;28;20054;-40
2021/07/08 07:12:46;;;;;;;7.93;3.78;;;19.10;99.90;;;;;;12390742;28;19926;-42
2021/07/08 07:18:49;;;;;;;9.77;3.75;;;19.00;99.90;;;;;;12396582;28;20051;-41
2021/07/08 07:24:52;;;;;;;8.70;3.40;;;19.00;99.90;;;;;;12396623;28;20137;-41
2021/07/08 07:30:54;;;;;;;8.90;3.10;;;19.10;99.90;;;;;;12396624;28;20042;-41
2021/07/08 07:36:56;;;;;;;9.38;3.00;;;19.30;99.90;;;;;;12403637;28;20073;-41
2021/07/08 07:42:58;;;;;;;8.05;3.58;;;19.30;99.90;;;;;;12386700;28;20054;-41
2021/07/08 07:48:59;;;;;;;6.97;3.20;;;19.40;99.90;;;;;;12395043;28;20054;-42
2021/07/08 07:55:02;;;;;;;7.70;3.65;;;19.50;99.90;;;;;;12392501;28;20099;-42
2021/07/08 08:01:04;;;;;;;10.65;3.83;;;19.70;99.90;;;;;;12396790;28;20046;-41
2021/07/08 08:13:27;;;;;;;8.95;4.00;;;19.80;99.90;;;;;;12394411;28;20050;-42
2021/07/08 08:19:30;;;;;;;11.07;3.90;;;19.90;99.90;;;;;;12393291;28;20104;-41
2021/07/08 08:25:32;;;;;;;7.25;3.40;;;20.00;99.90;;;;;;12389180;28;20741;-43
2021/07/08 08:31:34;;;;;;;9.70;3.70;;;20.10;99.90;;;;;;12395734;28;20046;-41
2021/07/08 08:37:36;;;;;;;11.82;4.07;;;20.20;99.90;;;;;;12391618;28;20053;-42
2021/07/08 08:43:40;;;;;;;7.38;4.18;;;20.30;99.90;;;;;;12386935;28;20050;-41
2021/07/08 08:49:42;;;;;;;5.15;3.28;;;20.60;99.90;;;;;;12392607;28;20053;-43
2021/07/08 08:55:45;;;;;;;6.57;3.08;;;20.90;99.90;;;;;;12385685;28;20043;-42
2021/07/08 09:02:10;;;;;;;9.53;3.57;;;20.80;99.90;;;;;;12393980;28;20442;-42
2021/07/08 09:08:39;;;;;;;9.48;3.47;;;20.80;99.90;;;;;;12394294;28;20050;-41
2021/07/08 09:14:41;;;;;;;9.27;3.10;;;21.10;99.90;;;;;;12390073;28;20577;-41
2021/07/08 09:20:42;;;;;;;8.80;3.25;;;21.30;99.90;;;;;;12393591;28;20116;-41
2021/07/08 09:27:14;;;;;;;7.47;2.50;;;21.50;99.90;;;;;;12393605;28;20118;-41
2021/07/08 09:33:33;;;;;;;6.75;2.33;;;21.70;99.90;;;;;;12379883;28;20046;-41
2021/07/08 09:40:04;;;;;;;7.63;2.30;;;22.10;99.90;;;;;;12389171;28;20630;-41
2021/07/08 09:46:07;;;;;;;9.27;2.20;;;22.50;99.90;;;;;;12389572;28;20054;-41
2021/07/08 09:52:10;;;;;;;5.78;2.15;;;22.60;99.90;;;;;;12391316;28;20050;-42
2021/07/08 09:58:12;;;;;;;6.00;1.90;;;22.80;99.90;;;;;;12385530;28;20103;-41
2021/07/08 10:04:14;;;;;;;5.65;1.90;;;23.20;99.90;;;;;;12420855;28;20104;-42
2021/07/08 10:10:16;;;;;;;9.50;2.35;;;23.20;99.90;;;;;;12434494;28;20053;-41
2021/07/08 10:16:19;;;;;;;7.97;2.17;;;23.60;99.90;;;;;;12440136;28;20454;-41
2021/07/08 10:22:21;;;;;;;7.25;1.90;;;23.30;99.90;;;;;;12432832;28;20126;-43
2021/07/08 10:28:24;;;;;;;7.13;1.60;;;23.70;99.90;;;;;;12433641;28;20045;-42
2021/07/08 10:34:25;;;;;;;4.60;1.70;;;23.90;99.90;;;;;;12431521;28;20452;-41
2021/07/08 10:40:29;;;;;;;7.95;2.20;;;24.20;99.90;;;;;;12436129;28;20049;-41
2021/07/08 10:46:37;;;;;;;4.97;1.75;;;24.40;99.90;;;;;;12411390;28;20136;-42
2021/07/08 10:52:48;;;;;;;4.93;1.70;;;24.50;99.90;;;;;;12432074;28;20041;-41
2021/07/08 10:58:56;;;;;;;3.47;1.30;;;23.80;99.90;;;;;;12431529;28;20988;-39
2021/07/08 11:04:58;;;;;;;6.43;1.75;;;24.30;99.90;;;;;;12426849;28;20045;-40
2021/07/08 11:11:00;;;;;;;4.60;1.27;;;24.40;99.90;;;;;;12425215;28;20580;-40
2021/07/08 11:17:11;;;;;;;3.40;1.50;;;24.40;99.90;;;;;;12423607;28;20127;-39
2021/07/08 11:23:40;;;;;;;3.45;1.35;;;24.90;99.90;;;;;;12427733;28;20418;-38
2021/07/08 11:29:52;;;;;;;4.07;1.70;;;24.70;99.90;;;;;;12430857;28;20061;-39
2021/07/08 11:35:59;;;;;;;3.20;1.20;;;24.90;99.90;;;;;;12438569;28;20678;-39
2021/07/08 11:42:01;;;;;;;4.50;1.27;;;25.10;99.90;;;;;;12441372;28;20053;-40
2021/07/08 11:48:03;;;;;;;5.75;1.55;;;25.80;99.90;;;;;;12442071;28;20049;-39
2021/07/08 11:54:07;;;;;;;4.37;1.30;;;26.40;99.90;;;;;;12433223;28;20050;-39
2021/07/08 12:00:09;;;;;;;3.78;1.20;;;26.40;99.90;;;;;;12436145;28;20072;-39
2021/07/08 12:06:17;;;;;;;5.53;1.38;;;26.10;99.90;;;;;;12439573;28;20123;-39
2021/07/08 12:12:19;;;;;;;5.88;1.40;;;26.80;99.90;;;;;;12436769;28;20116;-39
2021/07/08 12:18:20;;;;;;;2.93;1.30;;;26.80;99.90;;;;;;12443381;28;20488;-39
2021/07/08 12:24:30;;;;;;;3.55;1.40;;;27.00;99.90;;;;;;12438816;28;20046;-40
2021/07/08 12:30:32;;;;;;;2.72;1.20;;;26.60;99.90;;;;;;12439348;28;20468;-39
2021/07/08 12:36:34;;;;;;;3.20;1.10;;;26.60;99.90;;;;;;12436589;28;20129;-39
2021/07/08 12:42:39;;;;;;;6.57;1.23;;;26.80;99.90;;;;;;12437999;28;20081;-40
2021/07/08 12:48:42;;;;;;;4.18;1.35;;;27.20;99.90;;;;;;12427744;28;20073;-39
2021/07/08 12:54:44;;;;;;;;;;;27.50;99.90;;;;;;12431700;28;20045;-39
2021/07/08 13:00:45;;;;;;;4.40;1.40;;;27.20;99.90;;;;;;12430166;28;19925;-39
2021/07/08 13:06:47;;;;;;;3.17;1.33;;;26.60;99.90;;;;;;12436773;28;20069;-41
2021/07/08 13:12:58;;;;;;;3.87;1.20;;;26.90;99.90;;;;;;12434846;28;20085;-39
2021/07/08 13:19:14;;;;;;;4.07;1.23;;;27.50;99.90;;;;;;12430821;28;20061;-40
2021/07/08 13:25:21;;;;;;;2.85;1.27;;;26.30;99.90;;;;;;12426595;28;20048;-40
2021/07/08 13:31:30;;;;;;;4.70;1.55;;;26.10;99.90;;;;;;12436447;28;20046;-39
2021/07/08 13:37:31;;;;;;;5.50;1.30;;;25.80;99.90;;;;;;12429853;28;20064;-39
2021/07/08 13:43:43;;;;;;;4.10;1.42;;;25.40;99.90;;;;;;12425155;28;20405;-39
2021/07/08 13:49:44;;;;;;;3.90;1.40;;;25.10;99.90;;;;;;12436233;28;20091;-38
2021/07/08 13:55:46;;;;;;;3.00;1.30;;;24.60;99.90;;;;;;12434900;28;20045;-39
2021/07/08 14:01:48;;;;;;;3.50;1.20;;;24.60;99.90;;;;;;12431788;28;20045;-39
2021/07/08 14:07:51;;;;;;;6.47;1.30;;;24.50;99.90;;;;;;12427466;28;20046;-39
2021/07/08 14:13:56;;;;;;;4.00;1.45;;;24.30;99.90;;;;;;12434664;28;20049;-38
2021/07/08 14:19:58;;;;;;;2.70;1.30;;;24.20;99.90;;;;;;12428675;28;20046;-39
2021/07/08 14:25:59;;;;;;;7.25;1.40;;;24.10;99.90;;;;;;12429455;28;20046;-39
2021/07/08 14:32:01;;;;;;;5.68;1.50;;;24.10;99.90;;;;;;12432143;28;20456;-39
2021/07/08 14:38:04;;;;;;;4.63;1.45;;;24.00;99.90;;;;;;12436775;28;20521;-38
2021/07/08 14:44:10;;;;;;;;;;;24.00;99.90;;;;;;12433539;28;20076;-38
2021/07/08 14:50:13;;;;;;;3.75;1.33;;;23.80;99.90;;;;;;12430431;28;19925;-39
2021/07/08 14:56:14;;;;;;;2.67;1.20;;;23.70;99.90;;;;;;12432415;28;20049;-39
2021/07/08 15:02:16;;;;;;;5.72;1.52;;;23.70;99.90;;;;;;12428302;28;20092;-39
2021/07/08 15:08:18;;;;;;;4.40;1.55;;;23.70;99.90;;;;;;12442018;28;20383;-39
2021/07/08 15:14:20;;;;;;;9.02;2.00;;;23.70;99.90;;;;;;12446613;28;20042;-38
2021/07/08 15:20:23;;;;;;;5.50;1.85;;;22.80;99.90;;;;;;12444408;28;20123;-39
2021/07/08 15:26:25;;;;;;;3.50;1.70;;;22.20;99.90;;;;;;12446857;28;20140;-39
2021/07/08 15:32:27;;;;;;;3.55;1.90;;;21.80;99.90;;;;;;12441788;28;20049;-39
2021/07/08 15:38:29;;;;;;;3.45;2.30;;;21.30;99.90;;;;;;12443858;28;20585;-39
2021/07/08 15:44:31;;;;;;;7.65;2.30;;;21.00;99.90;;;;;;12439268;28;20087;-39
2021/07/08 15:50:35;;;;;;;5.18;1.90;;;20.50;99.90;;;;;;12443658;28;20037;-39
2021/07/08 15:56:37;;;;;;;12.18;3.25;;;20.10;99.90;;;;;;12437837;28;20434;-39
2021/07/08 16:02:39;;;;;;;9.63;3.50;;;18.80;99.90;;;;;;12440396;28;20046;-40
2021/07/08 16:08:40;;;;;;;8.02;3.17;;;18.00;99.90;;;;;;12435766;28;20042;-38
2021/07/08 16:14:45;;;;;;;5.95;2.80;;;17.60;99.90;;;;;;12443109;28;20046;-40
2021/07/08 16:20:48;;;;;;;7.20;3.28;;;17.60;99.90;;;;;;12439919;28;20049;-40
2021/07/08 16:26:52;;;;;;;8.07;3.30;;;17.90;99.90;;;;;;12445060;28;20060;-39
2021/07/08 16:32:54;;;;;;;8.45;3.72;;;18.10;99.90;;;;;;12444795;28;20046;-39
2021/07/08 16:38:56;;;;;;;7.63;3.60;;;18.40;99.90;;;;;;12443342;28;20828;-38
2021/07/08 16:44:58;;;;;;;9.68;4.10;;;18.60;99.90;;;;;;12443861;28;20408;-40
2021/07/08 16:51:00;;;;;;;7.72;3.83;;;18.50;99.90;;;;;;12444730;28;20091;-40
2021/07/08 16:57:03;;;;;;;5.57;3.45;;;18.40;99.90;;;;;;12439881;28;20054;-40
2021/07/08 17:03:09;;;;;;;7.60;3.53;;;18.30;99.90;;;;;;12438243;28;20112;-40
2021/07/08 17:09:11;;;;;;;8.15;4.40;;;18.20;99.90;;;;;;12442119;28;20049;-39
2021/07/08 17:15:13;;;;;;;8.23;3.42;;;18.30;99.90;;;;;;12438018;28;20130;-39
2021/07/08 17:21:15;;;;;;;5.47;3.67;;;18.50;99.90;;;;;;12436244;28;20056;-39
2021/07/08 17:27:17;;;;;;;10.38;4.03;;;18.80;99.90;;;;;;12437662;28;20050;-40
2021/07/08 17:33:19;;;;;;;7.90;3.72;;;18.90;99.90;;;;;;12432060;28;20046;-39
2021/07/08 17:39:21;;;;;;;7.47;3.58;;;18.90;99.90;;;;;;12440815;28;20053;-39
2021/07/08 17:45:23;;;;;;;11.77;4.30;;;18.90;99.90;;;;;;12439791;28;20054;-38
2021/07/08 17:51:25;;;;;;;7.20;3.65;;;19.00;99.90;;;;;;12439467;28;20322;-41
2021/07/08 17:57:27;;;;;;;10.63;4.00;;;19.00;99.90;;;;;;12441330;28;20092;-41
2021/07/08 18:03:29;;;;;;;10.50;4.30;;;19.10;99.90;;;;;;12433768;28;20457;-39
2021/07/08 18:09:31;;;;;;;6.68;3.72;;;19.00;99.90;;;;;;12436821;28;20053;-41
2021/07/08 18:15:33;;;;;;;6.38;2.90;;;18.80;99.90;;;;;;12439782;28;20053;-39
2021/07/08 18:21:34;;;;;;;12.40;3.78;;;18.80;99.90;;;;;;12439012;28;20049;-39
2021/07/08 18:27:56;;;;;;;9.93;4.68;;;18.80;99.90;;;;;;12432217;28;20541;-39
2021/07/08 18:33:58;;;;;;;14.07;5.28;;;18.80;99.90;;;;;;12437083;28;20049;-39
2021/07/08 18:40:01;;;;;;;14.18;5.72;;;18.70;99.90;;;;;;12432704;28;20056;-39
2021/07/08 18:46:10;;;;;;;12.93;5.80;;;18.30;99.90;;;;;;12437244;28;20041;-39
2021/07/08 18:52:12;;;;;;;8.70;5.20;;;18.00;99.90;;;;;;12442850;28;20054;-39
2021/07/08 18:58:14;;;;;;;13.52;6.20;;;18.10;99.90;;;;;;12435124;28;20053;-39
2021/07/08 19:04:16;;;;;;;10.80;6.68;;;18.00;99.90;;;;;;12434305;28;20114;-39
2021/07/08 19:10:18;;;;;;;11.48;5.93;;;18.00;99.90;;;;;;12427131;28;20049;-39
2021/07/08 19:16:21;;;;;;;10.27;5.70;;;18.10;99.90;;;;;;12441046;28;20192;-39
2021/07/08 19:22:24;;;;;;;16.27;6.05;;;18.20;99.90;;;;;;12430725;28;20585;-39
2021/07/08 19:28:25;;;;;;;9.73;6.22;;;18.10;99.90;;;;;;12435125;28;20042;-39
2021/07/08 19:34:27;;;;;;;10.32;6.07;;;18.10;99.90;;;;;;12436346;28;20054;-38
2021/07/08 19:40:29;;;;;;;7.68;5.60;;;18.10;99.90;;;;;;12435072;28;20072;-38
2021/07/08 19:46:32;;;;;;;9.77;5.13;;;18.10;99.90;;;;;;12436997;28;20565;-39
2021/07/08 19:52:34;;;;;;;9.35;5.18;;;18.10;99.90;;;;;;12438382;28;20045;-39
2021/07/08 19:58:36;;;;;;;11.45;5.30;;;18.00;99.90;;;;;;12444396;28;20046;-38
2021/07/08 20:04:38;;;;;;;9.30;5.18;;;17.90;99.90;;;;;;12432890;28;20053;-39
2021/07/08 20:10:40;;;;;;;8.25;4.70;;;18.10;99.90;;;;;;12442023;28;20363;-40
2021/07/08 20:16:42;;;;;;;11.45;4.45;;;18.00;99.90;;;;;;12444374;28;20478;-38
2021/07/08 20:22:44;;;;;;;9.90;4.20;;;18.00;99.90;;;;;;12443398;28;20053;-38
2021/07/08 20:28:46;;;;;;;11.93;4.43;;;18.00;99.90;;;;;;12437471;28;20110;-38
2021/07/08 20:34:48;;;;;;;21.27;4.90;;;17.90;99.90;;;;;;12444914;28;20096;-39
2021/07/08 20:40:50;;;;;;;17.58;4.47;;;17.50;99.90;;;;;;12436257;28;20041;-40
2021/07/08 20:46:52;;;;;;;10.45;3.30;;;17.40;99.90;;;;;;12436844;28;20534;-38
2021/07/08 20:52:54;;;;;;;7.78;3.22;;;17.00;99.90;;;;;;12435249;28;20779;-38
2021/07/08 20:58:56;;;;;;;15.52;3.50;;;16.90;99.90;;;;;;12442873;28;20533;-39
2021/07/08 21:04:57;;;;;;;16.38;3.88;;;16.90;99.90;;;;;;12444937;28;20049;-38
2021/07/08 21:10:59;;;;;;;24.27;4.28;;;17.10;99.90;;;;;;12448432;28;20095;-38
2021/07/08 21:17:03;;;;;;;14.38;4.28;;;17.20;99.90;;;;;;12447858;28;20057;-38
2021/07/08 21:23:07;;;;;;;13.52;3.95;;;17.30;99.90;;;;;;12438363;28;20383;-38
2021/07/08 21:29:08;;;;;;;11.07;4.35;;;17.50;99.90;;;;;;12439949;28;20049;-39
2021/07/08 21:35:11;;;;;;;18.45;4.53;;;17.60;99.90;;;;;;12442934;28;20461;-38
2021/07/08 21:41:22;;;;;;;25.60;5.82;;;17.30;99.90;;;;;;12437428;28;20107;-39
2021/07/08 21:47:24;;;;;;;15.45;5.90;;;17.30;99.90;;;;;;12445765;28;20452;-38
2021/07/08 21:53:26;;;;;;;27.35;6.10;;;17.20;99.90;;;;;;12439405;28;20068;-38
2021/07/08 21:59:28;;;;;;;23.63;6.63;;;17.20;99.90;;;;;;12443936;28;20057;-38
2021/07/08 22:05:30;;;;;;;20.50;7.05;;;17.40;99.90;;;;;;12435785;28;20034;-38
2021/07/08 22:11:32;;;;;;;17.67;6.60;;;17.50;99.90;;;;;;12430786;28;20050;-39
2021/07/08 22:17:34;;;;;;;14.07;7.13;;;17.60;99.90;;;;;;12442158;28;20095;-38
2021/07/08 22:23:36;;;;;;;17.70;7.22;;;17.60;99.90;;;;;;12440218;28;20050;-40
2021/07/08 22:29:38;;;;;;;17.60;6.38;;;17.60;99.90;;;;;;12436983;28;20448;-38
2021/07/08 22:35:39;;;;;;;11.02;5.47;;;17.60;99.90;;;;;;12437443;28;20205;-38
2021/07/08 22:41:41;;;;;;;12.95;6.00;;;17.60;99.90;;;;;;12437143;28;20049;-38
2021/07/08 22:47:43;;;;;;;10.10;6.25;;;17.60;99.90;;;;;;12440116;28;20083;-38
2021/07/08 22:53:45;;;;;;;13.57;6.20;;;17.60;99.90;;;;;;12440174;28;20061;-38
2021/07/08 22:59:47;;;;;;;12.15;6.55;;;17.60;99.90;;;;;;12434287;28;20054;-39
2021/07/08 23:05:48;;;;;;;10.77;6.30;;;17.50;99.90;;;;;;12435073;28;20045;-38
2021/07/08 23:11:50;;;;;;;15.60;7.35;;;17.50;99.90;;;;;;12441678;28;20690;-39
2021/07/08 23:17:52;;;;;;;15.13;7.35;;;17.50;99.90;;;;;;12440649;28;20061;-38
2021/07/08 23:23:54;;;;;;;13.65;7.47;;;17.40;99.90;;;;;;12438104;28;20116;-39
2021/07/08 23:29:56;;;;;;;14.10;9.00;;;17.40;99.90;;;;;;12444173;28;20087;-38
2021/07/08 23:35:57;;;;;;;11.63;9.30;;;17.40;99.90;;;;;;12446021;28;20049;-38
